Time;durP1;ratioP1;P1;durP2;ratioP2;P2;SDS_P1;SDS_P2;PMS_P1;PMS_P2;Temp;Humidity;BMP_temperature;BMP_pressure;BME280_temperature;BME280_humidity;BME280_pressure;Samples;Min_cycle;Max_cycle;Signal;HPM_P1;HPM_P2
2022/06/14 00:01:34;;;;;;;9.10;3.30;;;10.10;99.90;;;;;;5088175;28;20057;-66
2022/06/14 00:04:01;;;;;;;9.88;4.03;;;10.10;99.90;;;;;;5072871;28;20044;-66
2022/06/14 00:06:30;;;;;;;5.80;3.55;;;10.10;99.90;;;;;;5077126;28;20045;-66
2022/06/14 00:08:56;;;;;;;12.38;4.20;;;10.20;99.90;;;;;;5091281;28;20102;-66
2022/06/14 00:11:25;;;;;;;8.88;4.28;;;10.00;99.90;;;;;;5085398;28;20058;-66
2022/06/14 00:13:53;;;;;;;11.45;3.78;;;10.20;99.90;;;;;;5081995;28;20477;-66
2022/06/14 00:16:20;;;;;;;9.10;3.80;;;10.30;99.90;;;;;;5071214;28;20044;-66
2022/06/14 00:18:46;;;;;;;9.20;3.55;;;10.10;99.90;;;;;;5091486;28;20044;-66
2022/06/14 00:21:11;;;;;;;5.70;3.17;;;10.00;99.90;;;;;;5068556;28;20508;-66
2022/06/14 00:23:38;;;;;;;12.25;3.50;;;10.00;99.90;;;;;;5088939;28;20043;-66
2022/06/14 00:26:04;;;;;;;11.60;3.80;;;10.00;99.90;;;;;;5094603;28;20044;-66
2022/06/14 00:28:32;;;;;;;10.98;3.97;;;10.00;99.90;;;;;;5073450;28;20036;-66
2022/06/14 00:31:06;;;;;;;9.77;3.50;;;10.30;99.90;;;;;;5067010;28;20068;-66
2022/06/14 00:33:32;;;;;;;10.93;4.30;;;10.00;99.90;;;;;;5090319;28;20396;-66
2022/06/14 00:36:04;;;;;;;12.40;4.20;;;9.80;99.90;;;;;;5091231;28;20133;-66
2022/06/14 00:38:30;;;;;;;10.60;3.67;;;9.80;99.90;;;;;;5073463;28;20044;-66
2022/06/14 00:40:59;;;;;;;9.98;3.58;;;9.90;99.90;;;;;;5074006;28;20044;-66
2022/06/14 00:43:25;;;;;;;10.77;3.60;;;9.80;99.90;;;;;;5081895;28;20044;-66
2022/06/14 00:45:52;;;;;;;9.48;3.85;;;9.70;99.90;;;;;;5050383;28;20060;-66
2022/06/14 00:48:26;;;;;;;7.32;3.40;;;9.70;99.90;;;;;;5097448;28;20089;-66
2022/06/14 00:51:10;;;;;;;9.48;3.40;;;9.60;99.90;;;;;;5073095;28;20123;-66
2022/06/14 00:53:46;;;;;;;9.02;3.42;;;9.60;99.90;;;;;;5048284;28;20057;-66
2022/06/14 00:56:20;;;;;;;9.32;3.88;;;9.40;99.90;;;;;;5084972;28;20036;-66
2022/06/14 00:58:52;;;;;;;10.88;4.25;;;9.50;99.90;;;;;;5080784;28;20063;-66
2022/06/14 01:01:25;;;;;;;17.30;4.82;;;9.40;99.90;;;;;;5068357;28;20048;-66
2022/06/14 01:03:56;;;;;;;13.13;3.80;;;9.40;99.90;;;;;;5087244;28;20058;-66
2022/06/14 01:06:32;;;;;;;7.50;3.35;;;9.20;99.90;;;;;;5064765;28;20113;-66
2022/06/14 01:09:08;;;;;;;15.27;3.95;;;9.20;99.90;;;;;;5067215;28;20421;-66
2022/06/14 01:11:40;;;;;;;10.95;3.55;;;9.10;99.90;;;;;;5085548;28;20048;-66
2022/06/14 01:14:07;;;;;;;9.05;4.05;;;9.30;99.90;;;;;;5065806;28;20048;-66
2022/06/14 01:16:34;;;;;;;8.82;4.00;;;9.20;99.90;;;;;;5084372;28;20404;-66
2022/06/14 01:19:00;;;;;;;11.27;3.45;;;9.30;99.90;;;;;;5084188;28;20047;-66
2022/06/14 01:21:26;;;;;;;8.48;3.50;;;9.30;99.90;;;;;;5084473;28;20044;-66
2022/06/14 01:23:52;;;;;;;10.05;4.22;;;9.20;99.90;;;;;;5085194;28;20048;-66
2022/06/14 01:26:22;;;;;;;8.20;3.35;;;9.40;99.90;;;;;;5072831;28;20084;-66
2022/06/14 01:28:54;;;;;;;;;;;9.40;99.90;;;;;;5073595;28;20067;-66
2022/06/14 01:31:22;;;;;;;7.13;3.50;;;9.30;99.90;;;;;;5073447;28;19971;-66
2022/06/14 01:33:51;;;;;;;11.93;4.07;;;9.10;99.90;;;;;;5087855;28;20426;-66
2022/06/14 01:36:30;;;;;;;12.30;4.10;;;9.00;99.90;;;;;;5095960;28;20496;-66
2022/06/14 01:39:03;;;;;;;10.77;4.30;;;9.30;99.90;;;;;;5052428;28;20051;-66
2022/06/14 01:41:29;;;;;;;10.23;4.72;;;9.20;99.90;;;;;;5071128;28;20047;-66
2022/06/14 01:44:18;;;;;;;7.80;3.97;;;9.20;99.90;;;;;;5076349;28;20052;-66
2022/06/14 01:47:15;;;;;;;10.10;4.13;;;9.00;99.90;;;;;;5090251;28;20048;-65
2022/06/14 01:52:47;;;;;;;10.43;3.90;;;9.10;99.90;;;;;;5087760;28;20107;-66
2022/06/14 01:55:44;;;;;;;11.40;3.90;;;9.10;99.90;;;;;;5092873;28;20119;-66
2022/06/14 01:58:47;;;;;;;10.88;3.83;;;9.00;99.90;;;;;;5092618;28;20044;-66
2022/06/14 02:01:25;;;;;;;10.70;4.05;;;9.10;99.90;;;;;;5088747;28;20066;-66
2022/06/14 02:06:59;;;;;;;8.00;3.40;;;8.80;99.90;;;;;;5085795;28;20052;-66
2022/06/14 02:09:36;;;;;;;11.95;4.63;;;8.50;99.90;;;;;;5083125;28;20131;-66
2022/06/14 02:12:04;;;;;;;17.20;5.40;;;8.60;99.90;;;;;;5081335;28;20101;-66
2022/06/14 02:14:40;;;;;;;12.25;4.05;;;8.80;99.90;;;;;;5073002;28;20041;-66
2022/06/14 02:17:29;;;;;;;11.48;4.68;;;8.90;99.90;;;;;;5073633;28;20070;-66
2022/06/14 02:20:00;;;;;;;8.05;3.90;;;8.80;99.90;;;;;;5052311;28;20057;-66
2022/06/14 02:22:35;;;;;;;8.75;3.55;;;8.90;99.90;;;;;;5086500;28;20037;-65
2022/06/14 02:25:11;;;;;;;8.52;3.95;;;8.80;99.90;;;;;;5065991;28;20048;-66
2022/06/14 02:28:07;;;;;;;10.45;4.05;;;8.80;99.90;;;;;;5072680;28;20072;-66
2022/06/14 02:30:41;;;;;;;11.75;4.22;;;8.90;99.90;;;;;;5077311;28;20050;-66
2022/06/14 02:33:18;;;;;;;12.18;4.78;;;8.80;99.90;;;;;;5096791;28;20045;-66
2022/06/14 02:35:52;;;;;;;9.85;4.30;;;9.00;99.90;;;;;;5074026;28;20055;-66
2022/06/14 02:38:33;;;;;;;12.70;5.22;;;8.70;99.90;;;;;;5087161;28;20058;-66
2022/06/14 02:41:16;;;;;;;15.68;4.70;;;8.90;99.90;;;;;;5092949;28;20454;-66
2022/06/14 02:43:55;;;;;;;16.52;4.68;;;8.80;99.90;;;;;;5068803;28;20044;-66
2022/06/14 02:46:33;;;;;;;13.23;4.70;;;8.70;99.90;;;;;;5076299;28;20044;-66
2022/06/14 02:49:02;;;;;;;10.07;5.53;;;8.80;99.90;;;;;;5072181;28;20052;-66
2022/06/14 02:51:53;;;;;;;13.20;6.15;;;8.80;99.90;;;;;;5094554;28;20109;-66
2022/06/14 02:54:26;;;;;;;9.23;4.50;;;8.80;99.90;;;;;;5087711;28;20103;-65
2022/06/14 02:57:05;;;;;;;10.60;4.90;;;8.80;99.90;;;;;;5064484;28;20056;-66
2022/06/14 02:59:39;;;;;;;11.95;4.78;;;8.80;99.90;;;;;;5072205;28;20070;-66
2022/06/14 03:02:23;;;;;;;11.20;4.70;;;8.80;99.90;;;;;;5104039;28;20048;-66
2022/06/14 03:05:00;;;;;;;16.27;8.77;;;8.70;99.90;;;;;;5091034;28;20075;-66
2022/06/14 03:07:33;;;;;;;15.55;7.60;;;8.70;99.90;;;;;;5100133;28;20068;-66
2022/06/14 03:10:00;;;;;;;9.82;5.18;;;8.70;99.90;;;;;;5068966;28;20048;-66
2022/06/14 03:13:08;;;;;;;9.52;5.20;;;8.70;99.90;;;;;;5077839;28;20127;-66
2022/06/14 03:15:47;;;;;;;13.98;5.38;;;8.60;99.90;;;;;;4987810;28;20081;-65
2022/06/14 03:18:38;;;;;;;11.32;5.65;;;8.60;99.90;;;;;;5004945;28;20054;-66
2022/06/14 03:21:23;;;;;;;11.25;6.20;;;8.70;99.90;;;;;;5005159;28;20038;-66
2022/06/14 03:24:07;;;;;;;18.00;6.40;;;8.70;99.90;;;;;;5027517;28;20082;-66
2022/06/14 03:26:32;;;;;;;11.40;6.18;;;8.70;99.90;;;;;;5005002;28;20074;-65
2022/06/14 03:29:11;;;;;;;15.02;6.25;;;8.80;99.90;;;;;;5003622;28;20097;-66
2022/06/14 03:31:53;;;;;;;14.60;6.38;;;8.70;99.90;;;;;;5020572;28;20064;-66
2022/06/14 03:34:26;;;;;;;14.25;5.95;;;8.70;99.90;;;;;;4989524;28;20490;-66
2022/06/14 03:36:53;;;;;;;12.57;6.60;;;8.70;99.90;;;;;;5001819;28;20058;-66
2022/06/14 03:39:31;;;;;;;13.30;6.13;;;8.80;99.90;;;;;;4997336;28;20050;-66
2022/06/14 03:41:58;;;;;;;13.70;6.28;;;8.90;99.90;;;;;;4990987;28;20041;-66
2022/06/14 03:44:27;;;;;;;12.23;6.47;;;8.90;99.90;;;;;;4997802;28;20046;-66
2022/06/14 03:47:27;;;;;;;16.98;6.47;;;8.90;99.90;;;;;;5006987;28;20089;-66
2022/06/14 03:49:56;;;;;;;11.10;6.50;;;8.90;99.90;;;;;;5052736;28;20110;-66
2022/06/14 03:53:01;;;;;;;14.05;6.55;;;9.00;99.90;;;;;;5092115;28;20080;-66
2022/06/14 03:55:45;;;;;;;10.15;6.07;;;8.90;99.90;;;;;;5074376;28;20088;-66
2022/06/14 03:58:23;;;;;;;14.52;6.38;;;9.00;99.90;;;;;;5071735;28;20044;-66
2022/06/14 04:00:55;;;;;;;13.65;6.70;;;8.90;99.90;;;;;;5092119;28;20059;-65
2022/06/14 04:03:34;;;;;;;10.27;6.38;;;9.00;99.90;;;;;;5071509;28;20052;-66
2022/06/14 04:06:28;;;;;;;15.40;6.70;;;9.00;99.90;;;;;;5084607;28;20044;-66
2022/06/14 04:09:16;;;;;;;10.95;6.78;;;9.10;99.90;;;;;;5067649;28;20048;-65
2022/06/14 04:12:02;;;;;;;11.60;6.20;;;9.10;99.90;;;;;;5085898;28;20503;-66
2022/06/14 04:14:28;;;;;;;14.52;7.70;;;9.00;99.90;;;;;;5063312;28;20084;-66
2022/06/14 04:17:10;;;;;;;13.30;6.40;;;9.20;99.90;;;;;;5070659;28;20051;-66
2022/06/14 04:20:06;;;;;;;14.52;6.43;;;9.20;99.90;;;;;;5085840;28;20036;-66
2022/06/14 04:22:53;;;;;;;12.10;6.32;;;9.10;99.90;;;;;;5081838;28;20047;-66
2022/06/14 04:25:34;;;;;;;13.38;6.70;;;9.20;99.90;;;;;;5082586;28;20116;-66
2022/06/14 04:28:13;;;;;;;14.88;6.53;;;9.20;99.90;;;;;;5080377;28;20047;-66
2022/06/14 04:30:44;;;;;;;12.73;6.57;;;9.20;99.90;;;;;;5072065;28;20136;-66
2022/06/14 04:33:39;;;;;;;11.55;7.10;;;9.10;99.90;;;;;;5067334;28;20044;-66
2022/06/14 04:36:16;;;;;;;16.27;6.68;;;9.30;99.90;;;;;;5081200;28;20039;-66
2022/06/14 04:38:47;;;;;;;18.17;7.63;;;9.20;99.90;;;;;;5083856;28;20040;-66
2022/06/14 04:41:27;;;;;;;18.80;6.90;;;9.40;99.90;;;;;;5067458;28;20102;-67
2022/06/14 04:44:24;;;;;;;14.23;7.35;;;9.40;99.90;;;;;;5061135;28;20071;-66
2022/06/14 04:46:57;;;;;;;14.32;6.80;;;9.60;99.90;;;;;;5081604;28;20354;-65
2022/06/14 04:50:10;;;;;;;14.35;7.20;;;9.70;99.90;;;;;;5068097;28;20052;-66
2022/06/14 04:52:46;;;;;;;18.55;6.97;;;9.80;99.90;;;;;;5037175;28;20083;-67
2022/06/14 04:55:26;;;;;;;13.57;7.25;;;9.90;99.90;;;;;;5082263;28;20041;-67
2022/06/14 04:57:55;;;;;;;16.65;7.95;;;9.90;99.90;;;;;;5082708;28;20056;-68
2022/06/14 05:00:27;;;;;;;13.68;6.30;;;9.90;99.90;;;;;;5082321;28;20060;-67
2022/06/14 05:03:13;;;;;;;14.25;6.93;;;10.00;99.90;;;;;;5066284;28;20056;-67
2022/06/14 05:05:47;;;;;;;10.55;6.70;;;10.10;99.90;;;;;;5047073;28;20049;-66
2022/06/14 05:08:16;;;;;;;15.15;6.55;;;10.20;99.90;;;;;;5084831;28;20131;-66
2022/06/14 05:10:50;;;;;;;18.63;6.95;;;10.30;99.90;;;;;;5083073;28;20669;-66
2022/06/14 05:13:21;;;;;;;13.45;6.28;;;10.40;99.90;;;;;;5064457;28;20071;-66
2022/06/14 05:15:58;;;;;;;12.60;5.90;;;10.50;99.90;;;;;;5062486;28;20074;-66
2022/06/14 05:18:29;;;;;;;12.05;5.90;;;10.60;99.90;;;;;;5066355;28;20127;-73
2022/06/14 05:21:01;;;;;;;23.70;6.70;;;10.60;99.90;;;;;;5080279;28;20083;-74
2022/06/14 05:23:37;;;;;;;14.77;6.10;;;10.70;99.90;;;;;;5052252;28;20437;-69
2022/06/14 05:26:08;;;;;;;15.77;6.60;;;10.70;99.90;;;;;;5036646;28;20049;-66
2022/06/14 05:28:38;;;;;;;17.40;6.82;;;10.80;99.90;;;;;;5030676;28;20044;-66
2022/06/14 05:31:20;;;;;;;13.05;6.55;;;10.90;99.90;;;;;;5039701;28;20120;-66
2022/06/14 05:33:46;;;;;;;15.18;6.50;;;11.00;99.90;;;;;;5039441;28;20065;-66
2022/06/14 05:36:21;;;;;;;10.27;5.45;;;11.20;99.90;;;;;;5045969;28;20044;-66
2022/06/14 05:38:57;;;;;;;13.13;5.10;;;11.20;99.90;;;;;;5040768;28;20549;-66
2022/06/14 05:41:27;;;;;;;15.60;6.15;;;11.20;99.90;;;;;;5031652;28;20053;-66
2022/06/14 05:44:02;;;;;;;12.95;4.70;;;11.30;99.90;;;;;;5042456;28;20037;-66
2022/06/14 05:46:54;;;;;;;14.27;6.15;;;11.30;99.90;;;;;;5045272;28;20143;-66
2022/06/14 05:49:33;;;;;;;16.83;6.05;;;11.40;99.90;;;;;;5038669;28;20059;-66
2022/06/14 05:52:07;;;;;;;21.73;7.03;;;11.40;99.90;;;;;;5023953;28;20056;-66
2022/06/14 05:54:47;;;;;;;14.30;6.00;;;11.50;99.90;;;;;;5054447;28;20045;-66
2022/06/14 05:57:25;;;;;;;;;;;11.60;99.90;;;;;;5013075;28;20037;-64
2022/06/14 05:59:54;;;;;;;15.32;6.43;;;11.60;99.90;;;;;;5027985;28;19928;-65
2022/06/14 06:03:05;;;;;;;10.65;5.18;;;11.60;99.90;;;;;;5048307;28;20049;-64
2022/06/14 06:05:37;;;;;;;11.05;5.18;;;11.80;99.90;;;;;;5050758;28;20536;-65
2022/06/14 06:08:09;;;;;;;18.02;6.57;;;11.70;99.90;;;;;;5039130;28;20464;-64
2022/06/14 06:10:45;;;;;;;10.13;5.00;;;11.90;99.90;;;;;;5050133;28;20108;-65
2022/06/14 06:13:22;;;;;;;13.52;5.60;;;12.00;99.90;;;;;;5021584;28;20041;-65
2022/06/14 06:15:51;;;;;;;17.50;5.25;;;11.90;99.90;;;;;;5003959;28;20573;-65
2022/06/14 06:18:32;;;;;;;11.67;4.87;;;12.00;99.90;;;;;;5019286;28;20141;-64
2022/06/14 06:21:02;;;;;;;10.50;4.78;;;12.10;99.90;;;;;;5029475;28;20049;-64
2022/06/14 06:24:00;;;;;;;19.75;6.38;;;12.20;99.90;;;;;;5041104;28;20038;-65
2022/06/14 06:26:30;;;;;;;19.17;5.47;;;12.30;99.90;;;;;;4999454;28;20058;-65
2022/06/14 06:29:09;;;;;;;11.27;5.40;;;12.30;99.90;;;;;;5021820;28;20080;-67
2022/06/14 06:31:37;;;;;;;12.32;4.65;;;12.50;99.90;;;;;;5029310;28;20092;-65
2022/06/14 06:34:06;;;;;;;12.07;4.03;;;12.60;99.90;;;;;;5006688;28;20041;-65
2022/06/14 06:36:55;;;;;;;12.13;4.70;;;12.70;99.90;;;;;;5047189;28;20060;-65
2022/06/14 06:39:39;;;;;;;15.65;4.40;;;12.70;99.90;;;;;;5041706;28;20077;-65
2022/06/14 06:42:29;;;;;;;11.93;4.22;;;12.80;99.90;;;;;;5049629;28;20513;-65
2022/06/14 06:44:57;;;;;;;10.38;3.55;;;12.90;99.90;;;;;;5042149;28;20052;-67
2022/06/14 06:47:31;;;;;;;8.60;4.35;;;13.00;99.90;;;;;;5037725;28;20059;-65
2022/06/14 06:50:14;;;;;;;11.52;4.07;;;13.00;99.90;;;;;;5032150;28;20049;-66
2022/06/14 06:53:11;;;;;;;13.93;4.60;;;13.10;99.90;;;;;;5038537;28;20144;-65
2022/06/14 06:55:43;;;;;;;13.52;4.68;;;13.20;99.90;;;;;;5022872;28;20157;-65
2022/06/14 06:58:38;;;;;;;12.27;4.35;;;13.20;99.90;;;;;;5036782;28;20048;-65
2022/06/14 07:01:13;;;;;;;11.98;4.80;;;13.30;99.90;;;;;;5011569;28;20187;-64
2022/06/14 07:03:51;;;;;;;10.93;3.08;;;13.40;99.90;;;;;;5016327;28;20068;-64
2022/06/14 07:06:32;;;;;;;7.30;2.60;;;13.70;99.90;;;;;;5016767;28;20057;-65
2022/06/14 07:09:00;;;;;;;9.32;3.25;;;13.80;99.90;;;;;;5022182;28;20077;-64
2022/06/14 07:11:33;;;;;;;7.68;3.03;;;13.80;99.90;;;;;;5023224;28;20067;-64
2022/06/14 07:14:10;;;;;;;10.45;3.45;;;13.90;99.90;;;;;;5028724;28;20038;-65
2022/06/14 07:16:44;;;;;;;5.90;2.83;;;13.80;99.90;;;;;;5034734;28;20144;-64
2022/06/14 07:19:12;;;;;;;8.30;2.70;;;13.70;99.90;;;;;;5013861;28;20072;-64
2022/06/14 07:21:45;;;;;;;12.95;2.95;;;13.80;99.90;;;;;;5028851;28;20049;-64
2022/06/14 07:24:19;;;;;;;8.70;3.00;;;14.00;99.90;;;;;;5022100;28;20608;-65
2022/06/14 07:26:52;;;;;;;9.93;3.20;;;13.90;99.90;;;;;;5026212;28;20066;-64
2022/06/14 07:29:24;;;;;;;11.27;4.57;;;13.90;99.90;;;;;;5024566;28;20085;-64
2022/06/14 07:32:09;;;;;;;9.73;3.60;;;14.00;99.90;;;;;;5012761;28;20049;-65
2022/06/14 07:34:36;;;;;;;9.13;3.22;;;14.10;99.90;;;;;;5007804;28;20069;-64
2022/06/14 07:37:07;;;;;;;8.02;3.58;;;14.00;99.90;;;;;;5026267;28;20053;-64
2022/06/14 07:39:54;;;;;;;7.22;3.40;;;14.10;99.90;;;;;;5052560;28;20064;-65
2022/06/14 07:42:33;;;;;;;8.18;3.03;;;14.20;99.90;;;;;;5026837;28;20873;-65
2022/06/14 07:45:17;;;;;;;7.85;2.72;;;14.30;99.90;;;;;;5037233;28;20045;-65
2022/06/14 07:47:49;;;;;;;11.80;2.75;;;14.50;99.90;;;;;;5011287;28;20513;-65
2022/06/14 07:50:23;;;;;;;7.80;2.70;;;14.60;99.90;;;;;;5026973;28;20059;-65
2022/06/14 07:53:00;;;;;;;7.45;3.05;;;14.60;99.90;;;;;;5053853;28;20114;-64
2022/06/14 07:55:33;;;;;;;6.80;2.47;;;14.80;99.90;;;;;;5031297;28;20049;-65
2022/06/14 07:58:14;;;;;;;9.05;2.83;;;14.90;99.90;;;;;;5018326;28;20354;-65
2022/06/14 08:03:54;;;;;;;7.55;3.22;;;15.00;99.90;;;;;;5014483;28;20123;-64
2022/06/14 08:06:27;;;;;;;7.47;2.97;;;14.80;99.90;;;;;;5011206;28;20057;-64
2022/06/14 08:09:03;;;;;;;11.00;2.97;;;14.80;99.90;;;;;;5018250;28;20056;-62
2022/06/14 08:11:39;;;;;;;6.32;2.88;;;14.70;99.90;;;;;;5008715;28;20124;-62
2022/06/14 08:14:14;;;;;;;8.20;2.45;;;14.70;99.90;;;;;;5008604;28;20517;-63
2022/06/14 08:16:42;;;;;;;7.25;2.65;;;14.70;99.90;;;;;;5008068;28;20081;-63
2022/06/14 08:19:16;;;;;;;11.65;2.80;;;14.90;99.90;;;;;;5023467;28;20045;-62
2022/06/14 08:21:53;;;;;;;6.75;2.95;;;15.00;99.90;;;;;;5014645;28;20057;-62
2022/06/14 08:24:27;;;;;;;7.95;3.65;;;15.10;99.90;;;;;;5016505;28;20437;-62
2022/06/14 08:27:14;;;;;;;6.65;2.80;;;15.30;99.90;;;;;;5006547;28;20076;-62
2022/06/14 08:29:49;;;;;;;10.25;2.80;;;15.40;99.90;;;;;;5020876;28;20233;-64
2022/06/14 08:32:30;;;;;;;5.53;2.20;;;15.40;99.90;;;;;;5022801;28;20049;-63
2022/06/14 08:35:16;;;;;;;8.00;2.67;;;15.40;99.90;;;;;;5008307;28;20057;-63
2022/06/14 08:37:48;;;;;;;7.93;3.53;;;15.50;99.90;;;;;;5006271;28;20500;-63
2022/06/14 08:40:46;;;;;;;6.82;2.65;;;15.50;99.90;;;;;;5017245;28;20514;-63
2022/06/14 08:43:19;;;;;;;5.45;2.15;;;15.50;99.90;;;;;;4990534;28;20038;-63
2022/06/14 08:46:03;;;;;;;8.23;3.40;;;15.70;99.90;;;;;;5007724;28;20045;-63
2022/06/14 08:48:42;;;;;;;6.93;2.55;;;15.80;99.90;;;;;;5017113;28;20056;-63
2022/06/14 08:51:49;;;;;;;6.15;2.47;;;16.00;99.90;;;;;;5012662;28;20080;-63
2022/06/14 08:54:24;;;;;;;6.70;2.35;;;16.10;99.90;;;;;;5007108;28;20069;-63
2022/06/14 08:57:27;;;;;;;10.20;2.33;;;16.00;99.90;;;;;;5009933;28;20050;-63
2022/06/14 09:00:05;;;;;;;5.47;2.22;;;15.90;99.90;;;;;;5011432;28;20045;-64
2022/06/14 09:02:53;;;;;;;10.93;3.05;;;15.70;99.90;;;;;;5009246;28;20418;-63
2022/06/14 09:05:57;;;;;;;6.30;2.50;;;15.60;99.90;;;;;;5022780;28;20199;-63
2022/06/14 09:08:58;;;;;;;6.18;2.50;;;15.50;99.90;;;;;;5016684;28;20052;-63
2022/06/14 09:11:58;;;;;;;5.90;2.05;;;15.50;99.90;;;;;;4947477;28;20170;-63
2022/06/14 09:14:42;;;;;;;4.68;2.63;;;15.40;99.90;;;;;;4972274;28;20050;-63
2022/06/14 09:17:38;;;;;;;5.43;2.40;;;15.40;99.90;;;;;;4952535;28;20053;-63
2022/06/14 09:20:26;;;;;;;7.57;2.97;;;15.50;99.90;;;;;;4981398;28;20039;-63
2022/06/14 09:23:18;;;;;;;6.93;2.50;;;15.60;99.90;;;;;;4952450;28;20051;-65
2022/06/14 09:26:21;;;;;;;5.20;2.42;;;15.80;99.90;;;;;;4957403;28;20507;-64
2022/06/14 09:29:05;;;;;;;4.47;2.05;;;16.10;99.90;;;;;;4960627;28;20063;-64
2022/06/14 09:32:12;;;;;;;3.72;2.00;;;16.40;99.90;;;;;;4971151;28;20046;-64
2022/06/14 09:34:55;;;;;;;5.03;2.10;;;16.70;99.90;;;;;;4951587;28;20050;-64
2022/06/14 09:37:39;;;;;;;5.15;1.98;;;16.80;99.90;;;;;;4971482;28;20059;-64
2022/06/14 09:40:28;;;;;;;5.10;2.45;;;16.90;99.90;;;;;;4972177;28;20310;-64
2022/06/14 09:43:00;;;;;;;5.93;2.90;;;16.80;99.90;;;;;;4966801;28;20047;-64
2022/06/14 09:45:45;;;;;;;4.82;2.30;;;16.60;99.90;;;;;;4976883;28;20059;-64
2022/06/14 09:48:45;;;;;;;6.65;2.38;;;16.60;99.90;;;;;;4983979;28;20623;-65
2022/06/14 09:51:55;;;;;;;4.10;2.28;;;16.50;99.90;;;;;;5043671;28;20061;-64
2022/06/14 09:54:31;;;;;;;5.18;2.05;;;16.40;99.90;;;;;;5059283;28;20049;-64
2022/06/14 09:57:21;;;;;;;5.03;2.08;;;16.40;99.90;;;;;;5049134;28;20056;-64
2022/06/14 10:00:06;;;;;;;4.28;2.50;;;16.50;99.90;;;;;;5060098;28;20040;-64
2022/06/14 10:03:05;;;;;;;3.90;2.10;;;16.60;99.90;;;;;;5051106;28;20060;-64
2022/06/14 10:05:51;;;;;;;5.75;2.22;;;16.80;99.90;;;;;;5053174;28;20530;-64
2022/06/14 10:08:29;;;;;;;3.80;2.33;;;17.00;99.90;;;;;;5034193;28;20829;-64
2022/06/14 10:11:10;;;;;;;3.85;2.45;;;17.20;99.90;;;;;;5031280;28;20076;-64
2022/06/14 10:13:56;;;;;;;5.47;2.60;;;17.20;99.90;;;;;;5055211;28;20044;-64
2022/06/14 10:16:46;;;;;;;3.65;2.28;;;17.30;99.90;;;;;;5049678;28;20053;-64
2022/06/14 10:19:17;;;;;;;6.18;2.17;;;17.40;99.90;;;;;;4998388;28;20125;-65
2022/06/14 10:21:49;;;;;;;8.55;2.40;;;17.60;99.90;;;;;;5052114;28;20081;-64
2022/06/14 10:24:33;;;;;;;7.63;2.55;;;17.60;99.90;;;;;;5037900;28;20516;-65
2022/06/14 10:30:13;;;;;;;5.78;2.60;;;17.40;99.90;;;;;;5039299;28;20457;-64
2022/06/14 10:33:00;;;;;;;4.55;1.92;;;17.40;99.90;;;;;;5028064;28;20090;-64
2022/06/14 10:35:54;;;;;;;4.40;2.20;;;17.40;99.90;;;;;;5038477;28;20132;-64
2022/06/14 10:38:29;;;;;;;4.50;2.45;;;17.40;99.90;;;;;;5033274;28;20125;-64
2022/06/14 10:41:03;;;;;;;8.63;2.35;;;17.40;99.90;;;;;;5054895;28;20052;-65
2022/06/14 10:43:58;;;;;;;5.43;2.15;;;17.40;99.90;;;;;;5058572;28;20049;-64
2022/06/14 10:46:39;;;;;;;6.88;2.50;;;17.30;99.90;;;;;;5032235;28;20041;-65
2022/06/14 10:49:36;;;;;;;4.75;2.33;;;17.30;99.90;;;;;;5055806;28;20190;-64
2022/06/14 10:52:17;;;;;;;5.82;2.50;;;17.40;99.90;;;;;;5047553;28;20061;-63
2022/06/14 10:54:58;;;;;;;3.22;2.20;;;17.60;99.90;;;;;;5059653;28;20045;-64
2022/06/14 10:57:37;;;;;;;6.88;2.38;;;17.70;99.90;;;;;;5048044;28;20053;-64
2022/06/14 11:00:24;;;;;;;3.30;2.03;;;17.80;99.90;;;;;;5058699;28;20114;-64
2022/06/14 11:03:04;;;;;;;4.68;2.13;;;17.60;99.90;;;;;;5032849;28;20055;-63
2022/06/14 11:05:55;;;;;;;4.22;2.03;;;17.60;99.90;;;;;;5061065;28;20044;-64
2022/06/14 11:08:34;;;;;;;4.30;2.10;;;17.60;99.90;;;;;;5038349;28;20164;-65
2022/06/14 11:11:08;;;;;;;3.58;2.08;;;17.70;99.90;;;;;;5040601;28;20044;-66
2022/06/14 11:14:04;;;;;;;4.57;2.25;;;17.90;99.90;;;;;;5032833;28;20632;-65
2022/06/14 11:16:39;;;;;;;4.57;2.15;;;18.00;99.90;;;;;;5006365;28;20769;-65
2022/06/14 11:19:31;;;;;;;5.03;2.10;;;18.20;99.90;;;;;;5020218;28;20084;-65
2022/06/14 11:22:18;;;;;;;8.57;2.13;;;18.50;99.90;;;;;;5008449;28;20095;-64
2022/06/14 11:25:06;;;;;;;4.57;2.90;;;18.70;99.90;;;;;;5022619;28;20054;-65
2022/06/14 11:27:42;;;;;;;3.45;1.92;;;18.90;99.90;;;;;;5016480;28;20057;-64
2022/06/14 11:30:23;;;;;;;4.60;2.47;;;19.10;99.90;;;;;;5038548;28;20073;-65
2022/06/14 11:33:03;;;;;;;3.47;2.03;;;19.20;99.90;;;;;;5035754;28;20079;-65
2022/06/14 11:35:41;;;;;;;3.72;1.88;;;19.10;99.90;;;;;;5025732;28;20053;-65
2022/06/14 11:38:36;;;;;;;7.22;2.30;;;19.10;99.90;;;;;;5051225;28;20056;-65
2022/06/14 11:41:05;;;;;;;5.03;2.20;;;19.20;99.90;;;;;;4999343;28;20054;-65
2022/06/14 11:43:57;;;;;;;4.53;2.03;;;19.20;99.90;;;;;;5006006;28;20054;-65
2022/06/14 11:47:05;;;;;;;5.13;2.25;;;19.10;99.90;;;;;;4986665;28;20167;-65
2022/06/14 11:49:35;;;;;;;3.63;2.10;;;19.20;99.90;;;;;;4998837;28;20065;-64
2022/06/14 11:52:16;;;;;;;15.25;3.03;;;19.20;99.90;;;;;;5005346;28;20607;-65
2022/06/14 11:55:18;;;;;;;5.53;1.98;;;19.10;99.90;;;;;;5004093;28;20056;-65
2022/06/14 11:57:55;;;;;;;4.07;2.22;;;19.40;99.90;;;;;;4986671;28;20518;-65
2022/06/14 12:00:43;;;;;;;5.40;1.95;;;19.70;99.90;;;;;;4995346;28;20085;-65
2022/06/14 12:03:32;;;;;;;3.67;2.00;;;19.90;99.90;;;;;;5001667;28;20057;-65
2022/06/14 12:06:14;;;;;;;4.93;2.00;;;20.10;99.90;;;;;;4995110;28;20105;-65
2022/06/14 12:08:59;;;;;;;4.55;2.13;;;20.40;99.90;;;;;;4989634;28;20195;-65
2022/06/14 12:11:29;;;;;;;5.00;2.30;;;20.50;99.90;;;;;;4988923;28;20496;-65
2022/06/14 12:14:18;;;;;;;6.38;1.95;;;20.30;99.90;;;;;;5013869;28;20053;-65
2022/06/14 12:16:50;;;;;;;3.88;2.22;;;20.40;99.90;;;;;;5011475;28;20198;-66
2022/06/14 12:19:33;;;;;;;2.83;1.63;;;20.30;99.90;;;;;;5049240;28;20047;-67
2022/06/14 12:22:28;;;;;;;4.82;2.00;;;20.40;99.90;;;;;;5047034;28;20152;-65
2022/06/14 12:28:36;;;;;;;5.43;1.90;;;20.50;99.90;;;;;;5044112;28;20272;-64
2022/06/14 12:31:26;;;;;;;3.63;1.90;;;20.50;99.90;;;;;;4961259;28;20066;-65
2022/06/14 12:33:58;;;;;;;5.15;2.28;;;20.50;99.90;;;;;;4924297;28;20047;-65
2022/06/14 12:36:56;;;;;;;3.30;1.73;;;20.40;99.90;;;;;;4947502;28;20061;-65
2022/06/14 12:39:38;;;;;;;3.30;2.30;;;20.60;99.90;;;;;;4920494;29;20105;-65
2022/06/14 12:42:03;;;;;;;4.07;1.73;;;20.30;99.90;;;;;;4910757;29;20059;-65
2022/06/14 12:44:43;;;;;;;4.97;1.90;;;20.50;99.90;;;;;;4922646;29;20104;-65
2022/06/14 12:47:55;;;;;;;6.68;2.10;;;20.40;99.90;;;;;;4917588;29;20071;-65
2022/06/14 12:50:26;;;;;;;4.93;1.90;;;20.60;99.90;;;;;;4885978;29;20056;-65
2022/06/14 12:53:11;;;;;;;3.53;1.52;;;20.70;99.90;;;;;;4886531;29;20083;-65
2022/06/14 12:55:45;;;;;;;3.17;2.25;;;20.70;99.90;;;;;;4899639;29;20044;-65
2022/06/14 12:58:13;;;;;;;5.00;1.83;;;20.90;99.90;;;;;;4887125;29;20320;-65
2022/06/14 13:01:02;;;;;;;6.53;2.60;;;20.90;99.90;;;;;;4896361;29;20075;-65
2022/06/14 13:03:37;;;;;;;3.93;2.07;;;21.10;99.90;;;;;;4906902;29;20061;-65
2022/06/14 13:06:28;;;;;;;6.25;2.20;;;21.20;99.90;;;;;;4921194;29;20069;-65
2022/06/14 13:08:58;;;;;;;5.47;2.05;;;21.10;99.90;;;;;;4873120;29;20111;-65
2022/06/14 13:11:44;;;;;;;3.03;1.85;;;21.30;99.90;;;;;;4929744;29;20610;-65
2022/06/14 13:15:04;;;;;;;4.05;1.90;;;21.30;99.90;;;;;;4908339;29;20056;-65
2022/06/14 13:17:54;;;;;;;3.47;1.98;;;21.50;99.90;;;;;;4889272;29;20147;-65
2022/06/14 13:20:22;;;;;;;;;;;22.00;99.90;;;;;;4884569;29;20103;-66
2022/06/14 13:22:56;;;;;;;4.47;1.83;;;22.00;99.90;;;;;;4871613;29;19987;-65
2022/06/14 13:25:40;;;;;;;4.13;2.15;;;22.40;99.90;;;;;;4882476;29;20589;-65
2022/06/14 13:28:37;;;;;;;2.65;2.10;;;22.60;99.90;;;;;;4920187;28;20122;-65
2022/06/14 13:31:31;;;;;;;2.63;1.80;;;22.60;99.90;;;;;;4959991;28;20074;-65
2022/06/14 13:34:18;;;;;;;4.45;1.85;;;22.60;99.90;;;;;;4930454;28;20504;-65
2022/06/14 13:37:21;;;;;;;4.63;2.03;;;22.60;99.90;;;;;;4949289;28;20067;-66
2022/06/14 13:39:52;;;;;;;2.88;1.52;;;22.60;99.90;;;;;;4959558;28;20047;-66
2022/06/14 13:42:29;;;;;;;4.05;2.17;;;22.60;99.90;;;;;;4934841;29;20062;-65
2022/06/14 13:45:02;;;;;;;4.00;1.98;;;23.00;99.90;;;;;;4943263;28;20579;-65
2022/06/14 13:47:39;;;;;;;3.13;1.95;;;22.80;99.90;;;;;;4949896;28;20051;-65
2022/06/14 13:50:18;;;;;;;3.00;1.90;;;22.80;99.90;;;;;;4943270;29;20051;-63
2022/06/14 13:52:59;;;;;;;5.20;2.35;;;22.50;99.90;;;;;;4984033;28;20370;-66
2022/06/14 13:55:25;;;;;;;2.92;2.08;;;22.00;99.90;;;;;;5020349;28;20041;-66
2022/06/14 13:57:59;;;;;;;5.15;1.90;;;21.70;99.90;;;;;;5017731;28;20091;-66
2022/06/14 14:00:43;;;;;;;4.35;2.00;;;21.70;99.90;;;;;;5022257;28;20049;-66
2022/06/14 14:03:27;;;;;;;3.15;2.05;;;21.50;99.90;;;;;;5025699;28;20037;-66
2022/06/14 14:05:58;;;;;;;4.25;2.13;;;21.50;99.90;;;;;;5026679;28;20049;-66